This is the latest recevied weather packets stored in our database for station/object EB2BAG-11. If no packets are shown the sender has not sent any weather packets the latest 10 day(s).
| Time | Temp. | Humidity | Pressure | Rain* | Wind** | Luminosity | Snow |
|---|---|---|---|---|---|---|---|
| 1777904162 | 15° C | 82% | 1015.4 hPa | - | - | - | - |
| 1777902962 | 13.89° C | 87% | 1015.4 hPa | - | - | - | - |
| 1777901761 | 15° C | 85% | 1015.6 hPa | - | - | - | - |
| 1777900561 | 14.44° C | 85% | 1015.9 hPa | - | - | - | - |
| 1777899361 | 14.44° C | 86% | 1015.8 hPa | - | - | - | - |
| 1777898161 | 15° C | 86% | 1015.9 hPa | - | - | - | - |
| 1777896961 | 14.44° C | 90% | 1015.7 hPa | - | - | - | - |
| 1777895761 | 15° C | 87% | 1015.8 hPa | - | - | - | - |
| 1777894561 | 15.56° C | 83% | 1015.6 hPa | - | - | - | - |
| 1777893361 | 16.11° C | 83% | 1015.5 hPa | - | - | - | - |
| 1777892161 | 16.11° C | 84% | 1015.5 hPa | - | - | - | - |
| 1777890961 | 16.11° C | 81% | 1015.2 hPa | - | - | - | - |
| 1777889760 | 15.56° C | 86% | 1015.2 hPa | - | - | - | - |
| 1777888560 | 15.56° C | 87% | 1015.3 hPa | - | - | - | - |
| 1777887360 | 15° C | 88% | 1015.5 hPa | - | - | - | - |
| 1777886160 | 15.56° C | 84% | 1015.3 hPa | - | - | - | - |
| 1777884960 | 15° C | 85% | 1015.1 hPa | - | - | - | - |
| 1777883760 | 15° C | 85% | 1014.9 hPa | - | - | - | - |
| 1777882560 | 15° C | 87% | 1014.8 hPa | - | - | - | - |
| 1777881360 | 14.44° C | 88% | 1014.8 hPa | - | - | - | - |
| 1777880160 | 14.44° C | 88% | 1014.7 hPa | - | - | - | - |
| 1777878960 | 15.56° C | 84% | 1014.4 hPa | - | - | - | - |
| 1777877760 | 16.11° C | 83% | 1014.1 hPa | - | - | - | - |
| 1777876560 | 16.11° C | 85% | 1013.8 hPa | - | - | - | - |
| 1777875359 | 16.11° C | 84% | 1013.6 hPa | - | - | - | - |
* Rain since midnight (hover to see other rain measurements)
** Current wind speed in m/s (hover to see current wind gust speed)